Time;durP1;ratioP1;P1;durP2;ratioP2;P2;SDS_P1;SDS_P2;PMS_P1;PMS_P2;Temp;Humidity;BMP_temperature;BMP_pressure;BME280_temperature;BME280_humidity;BME280_pressure;Samples;Min_cycle;Max_cycle;Signal;HPM_P1;HPM_P2
2022/11/28 00:01:07;;;;;;;12.00;9.87;;;3.60;1.00;;;;;;5011289;28;20770;-66
2022/11/28 00:03:33;;;;;;;13.77;10.90;;;3.60;1.00;;;;;;5010862;28;20180;-65
2022/11/28 00:06:06;;;;;;;12.50;9.20;;;3.80;1.00;;;;;;5011217;28;20423;-66
2022/11/28 00:08:33;;;;;;;12.23;9.73;;;3.80;1.00;;;;;;5010523;28;20208;-66
2022/11/28 00:11:05;;;;;;;12.87;10.23;;;3.50;1.00;;;;;;5010318;28;20851;-66
2022/11/28 00:13:31;;;;;;;12.93;10.63;;;3.60;1.00;;;;;;5010882;28;20412;-66
2022/11/28 00:15:58;;;;;;;10.73;9.33;;;3.70;1.00;;;;;;5010804;28;20403;-66
2022/11/28 00:18:24;;;;;;;11.53;9.17;;;3.70;1.00;;;;;;5011017;28;20246;-65
2022/11/28 00:20:50;;;;;;;13.70;10.73;;;3.70;1.00;;;;;;5010133;28;20450;-66
2022/11/28 00:23:16;;;;;;;12.57;10.63;;;3.70;1.00;;;;;;5010403;28;20176;-66
2022/11/28 00:25:41;;;;;;;12.47;8.63;;;3.70;1.00;;;;;;5010930;28;20415;-66
2022/11/28 00:28:07;;;;;;;11.70;9.20;;;3.50;1.00;;;;;;5010613;28;20219;-66
2022/11/28 00:30:36;;;;;;;10.83;9.73;;;3.50;1.00;;;;;;5009914;28;20242;-65
2022/11/28 00:33:02;;;;;;;12.70;11.10;;;3.50;1.00;;;;;;5010643;28;20253;-65
2022/11/28 00:35:28;;;;;;;11.70;9.47;;;3.60;1.00;;;;;;5010578;28;20413;-66
2022/11/28 00:37:54;;;;;;;11.30;10.10;;;3.70;1.00;;;;;;5010135;28;20514;-66
2022/11/28 00:40:20;;;;;;;12.30;9.43;;;3.70;1.00;;;;;;5010386;28;20172;-66
2022/11/28 00:42:46;;;;;;;12.00;9.57;;;3.60;1.00;;;;;;5009935;28;20633;-66
2022/11/28 00:45:11;;;;;;;10.37;9.17;;;3.40;1.00;;;;;;5010652;28;20443;-65
2022/11/28 00:47:37;;;;;;;13.10;9.50;;;3.30;1.00;;;;;;5010229;28;20691;-65
2022/11/28 00:50:03;;;;;;;12.03;9.67;;;3.30;1.00;;;;;;5010893;28;20228;-65
2022/11/28 00:52:32;;;;;;;13.10;10.20;;;3.40;1.00;;;;;;5009780;28;20176;-66
2022/11/28 00:54:57;;;;;;;10.50;9.37;;;3.40;1.00;;;;;;5011233;28;20404;-66
2022/11/28 00:57:23;;;;;;;10.47;9.37;;;3.40;1.00;;;;;;5011725;28;20751;-65
2022/11/28 00:59:48;;;;;;;13.63;10.40;;;3.40;1.00;;;;;;5011883;28;20202;-66
2022/11/28 01:02:14;;;;;;;13.73;9.90;;;3.50;1.00;;;;;;5011116;28;20186;-66
2022/11/28 01:04:40;;;;;;;14.20;12.00;;;3.40;1.00;;;;;;5013342;28;20302;-66
2022/11/28 01:07:06;;;;;;;16.13;11.37;;;3.40;1.00;;;;;;5013719;28;20192;-66
2022/11/28 01:09:31;;;;;;;19.03;13.40;;;3.40;1.00;;;;;;5013263;28;20286;-66
2022/11/28 01:11:57;;;;;;;18.37;12.47;;;3.00;1.00;;;;;;5012131;28;20172;-66
2022/11/28 01:14:24;;;;;;;22.23;12.93;;;3.00;1.00;;;;;;5012803;28;20614;-66
2022/11/28 01:16:50;;;;;;;16.17;10.90;;;3.00;1.00;;;;;;5015098;28;20562;-66
2022/11/28 01:19:16;;;;;;;14.43;11.10;;;3.20;1.00;;;;;;5014725;28;20419;-66
2022/11/28 01:21:42;;;;;;;12.73;9.77;;;3.50;1.00;;;;;;5014631;28;20465;-66
2022/11/28 01:24:08;;;;;;;14.27;11.20;;;3.50;1.00;;;;;;5013051;28;20188;-66
2022/11/28 01:26:34;;;;;;;14.93;11.27;;;3.70;1.00;;;;;;5013163;28;20215;-66
2022/11/28 01:29:00;;;;;;;12.23;9.90;;;3.50;1.00;;;;;;5009709;28;20551;-66
2022/11/28 01:31:27;;;;;;;12.03;9.17;;;3.70;1.00;;;;;;5008901;28;20176;-67
2022/11/28 01:33:54;;;;;;;15.20;10.17;;;3.80;1.00;;;;;;5009669;28;20868;-64
2022/11/28 01:36:21;;;;;;;13.00;9.77;;;3.80;1.00;;;;;;5009943;28;20450;-64
2022/11/28 01:38:47;;;;;;;12.60;9.30;;;3.80;1.00;;;;;;5009217;28;20555;-64
2022/11/28 01:41:16;;;;;;;12.67;10.67;;;3.80;1.00;;;;;;5009007;28;20445;-64
2022/11/28 01:44:00;;;;;;;12.00;9.47;;;3.90;1.00;;;;;;5009187;28;20399;-65
2022/11/28 01:46:26;;;;;;;11.43;9.20;;;3.60;1.00;;;;;;5009278;28;20542;-64
2022/11/28 01:48:55;;;;;;;12.13;9.77;;;3.80;1.00;;;;;;5010019;28;20601;-64
2022/11/28 01:51:21;;;;;;;23.30;13.53;;;3.50;1.00;;;;;;5009684;28;20172;-64
2022/11/28 01:53:47;;;;;;;15.93;12.17;;;3.40;1.00;;;;;;5009440;28;20419;-64
2022/11/28 01:56:17;;;;;;;14.43;11.40;;;3.70;1.00;;;;;;5009874;28;20629;-63
2022/11/28 01:58:49;;;;;;;20.17;12.87;;;3.90;1.00;;;;;;5009775;28;20411;-64
2022/11/28 02:01:15;;;;;;;16.83;11.87;;;4.10;1.00;;;;;;5009243;28;20433;-64
2022/11/28 02:03:46;;;;;;;16.30;11.43;;;4.10;1.00;;;;;;5009665;28;20403;-64
2022/11/28 02:06:14;;;;;;;13.83;10.07;;;3.90;1.00;;;;;;5009816;28;20426;-64
2022/11/28 02:08:40;;;;;;;13.97;10.47;;;3.40;1.00;;;;;;5009325;28;20459;-64
2022/11/28 02:11:32;;;;;;;18.40;12.17;;;3.50;1.00;;;;;;5009143;28;20460;-64
2022/11/28 02:14:25;;;;;;;15.23;11.27;;;3.70;1.00;;;;;;4999340;28;20470;-64
2022/11/28 02:17:33;;;;;;;15.27;10.23;;;3.90;1.00;;;;;;5009702;28;20446;-64
2022/11/28 02:20:19;;;;;;;16.97;11.10;;;4.10;1.00;;;;;;5002204;28;20430;-64
2022/11/28 02:22:59;;;;;;;17.30;12.30;;;4.20;1.00;;;;;;5009366;28;20784;-64
2022/11/28 02:25:52;;;;;;;16.53;10.83;;;4.20;1.00;;;;;;5009566;28;20395;-64
2022/11/28 02:28:50;;;;;;;15.23;11.50;;;4.20;99.90;;;;;;5011503;28;20467;-64
2022/11/28 02:31:51;;;;;;;14.23;11.10;;;4.00;1.00;;;;;;5012588;28;20506;-64
2022/11/28 02:34:56;;;;;;;13.33;10.50;;;4.10;1.00;;;;;;5009933;28;20418;-64
2022/11/28 02:37:45;;;;;;;16.77;11.40;;;4.20;1.00;;;;;;5011740;28;20443;-64
2022/11/28 02:40:19;;;;;;;16.80;12.37;;;3.80;1.00;;;;;;5009592;28;20430;-64
2022/11/28 02:43:04;;;;;;;18.00;10.90;;;3.90;1.00;;;;;;5012271;28;20411;-64
2022/11/28 02:45:38;;;;;;;13.63;10.50;;;4.10;1.00;;;;;;5012867;28;20597;-64
2022/11/28 02:48:12;;;;;;;13.23;9.40;;;4.20;1.00;;;;;;5012420;28;20472;-65
2022/11/28 02:50:51;;;;;;;12.50;10.40;;;4.30;1.00;;;;;;5012496;28;20426;-64
2022/11/28 02:53:21;;;;;;;9.77;8.73;;;4.20;99.90;;;;;;5012493;28;20391;-64
2022/11/28 02:55:48;;;;;;;15.00;10.20;;;4.20;1.00;;;;;;5012851;28;20732;-64
2022/11/28 02:58:14;;;;;;;13.77;10.70;;;4.20;1.00;;;;;;5012473;28;20431;-64
2022/11/28 03:00:44;;;;;;;12.03;10.00;;;4.20;1.00;;;;;;5012083;28;20434;-64
2022/11/28 03:03:24;;;;;;;12.97;10.03;;;4.20;99.90;;;;;;5012385;28;20176;-64
2022/11/28 03:06:22;;;;;;;13.70;10.67;;;4.30;99.90;;;;;;5012522;28;20480;-64
2022/11/28 03:08:53;;;;;;;15.17;10.43;;;4.00;1.00;;;;;;5011892;28;20470;-64
2022/11/28 03:11:41;;;;;;;15.33;10.40;;;3.80;1.00;;;;;;5011871;28;20402;-66
2022/11/28 03:14:38;;;;;;;19.27;13.43;;;3.80;1.00;;;;;;5012230;28;20404;-66
2022/11/28 03:17:47;;;;;;;13.77;10.33;;;3.90;1.00;;;;;;5012168;28;20481;-66
2022/11/28 03:20:15;;;;;;;12.50;9.83;;;3.80;1.00;;;;;;5009429;28;20419;-66
2022/11/28 03:22:53;;;;;;;15.50;10.27;;;3.90;1.00;;;;;;5011739;28;20399;-66
2022/11/28 03:25:25;;;;;;;13.77;9.83;;;3.80;1.00;;;;;;5012079;28;20767;-66
2022/11/28 03:27:57;;;;;;;11.53;9.90;;;3.80;1.00;;;;;;5011534;28;20951;-66
2022/11/28 03:30:49;;;;;;;12.17;10.17;;;3.90;1.00;;;;;;5011849;28;20784;-66
2022/11/28 03:33:16;;;;;;;15.67;10.90;;;4.00;1.00;;;;;;5011757;28;20784;-65
2022/11/28 03:35:50;;;;;;;13.43;10.87;;;4.00;1.00;;;;;;5011787;28;20439;-65
2022/11/28 03:38:32;;;;;;;11.67;10.17;;;3.90;1.00;;;;;;5011382;28;20466;-66
2022/11/28 03:41:01;;;;;;;14.23;11.07;;;3.80;1.00;;;;;;5011278;28;20876;-66
2022/11/28 03:43:35;;;;;;;18.20;12.00;;;3.70;1.00;;;;;;5011382;28;20415;-64
2022/11/28 03:46:04;;;;;;;13.60;11.33;;;3.80;1.00;;;;;;5011275;28;20431;-64
2022/11/28 03:48:34;;;;;;;14.20;11.60;;;3.80;1.00;;;;;;5011209;28;21010;-65
2022/11/28 03:51:18;;;;;;;10.70;9.57;;;3.80;1.00;;;;;;5010803;28;20415;-64
2022/11/28 03:54:00;;;;;;;10.63;9.13;;;3.80;1.00;;;;;;5011126;28;20896;-64
2022/11/28 03:56:38;;;;;;;10.00;8.97;;;3.80;1.00;;;;;;5011447;28;20919;-64
2022/11/28 03:59:19;;;;;;;15.70;9.60;;;4.00;1.00;;;;;;5011646;28;20423;-64
2022/11/28 04:02:02;;;;;;;13.57;9.57;;;3.90;1.00;;;;;;5011105;28;20888;-64
2022/11/28 04:04:50;;;;;;;11.27;9.33;;;4.00;1.00;;;;;;5011359;28;20828;-64
2022/11/28 04:07:33;;;;;;;13.60;10.40;;;3.90;1.00;;;;;;5011199;28;20423;-64
2022/11/28 04:09:58;;;;;;;15.60;9.20;;;3.80;1.00;;;;;;5011680;28;20443;-65
2022/11/28 04:12:47;;;;;;;16.90;10.23;;;3.70;1.00;;;;;;5010858;28;20961;-65
2022/11/28 04:15:33;;;;;;;11.63;9.37;;;3.70;1.00;;;;;;5011360;28;20176;-65
2022/11/28 04:18:03;;;;;;;12.43;9.03;;;4.00;1.00;;;;;;5011172;28;20893;-65
2022/11/28 04:20:39;;;;;;;15.77;8.57;;;3.60;1.00;;;;;;5010960;28;20431;-65
2022/11/28 04:23:10;;;;;;;16.63;10.57;;;3.60;1.00;;;;;;5011203;28;20870;-65
2022/11/28 04:25:39;;;;;;;14.47;10.57;;;3.90;1.00;;;;;;5011373;28;20446;-65
2022/11/28 04:28:10;;;;;;;15.20;9.87;;;4.10;1.00;;;;;;5010653;28;21207;-64
2022/11/28 04:30:37;;;;;;;14.67;10.10;;;4.20;1.00;;;;;;5010569;28;20776;-65
2022/11/28 04:33:08;;;;;;;12.60;9.77;;;4.30;1.00;;;;;;5010727;28;20449;-65
2022/11/28 04:35:44;;;;;;;13.40;9.57;;;4.30;99.90;;;;;;5010913;28;20426;-65
2022/11/28 04:38:12;;;;;;;10.37;8.77;;;3.90;1.00;;;;;;5010388;28;20439;-65
2022/11/28 04:40:43;;;;;;;11.63;9.70;;;3.90;1.00;;;;;;5010538;28;20404;-66
2022/11/28 04:43:17;;;;;;;11.47;8.90;;;3.70;1.00;;;;;;5010882;28;20411;-66
2022/11/28 04:45:52;;;;;;;12.63;9.77;;;3.70;1.00;;;;;;5010889;28;20426;-65
2022/11/28 04:48:19;;;;;;;15.20;11.00;;;3.80;1.00;;;;;;5010349;28;20455;-66
2022/11/28 04:51:11;;;;;;;12.13;10.00;;;3.90;1.00;;;;;;5009926;28;20912;-66
2022/11/28 04:53:42;;;;;;;16.37;11.13;;;3.80;1.00;;;;;;5013314;28;20438;-66
2022/11/28 04:56:27;;;;;;;15.80;11.27;;;4.00;1.00;;;;;;5015116;28;20394;-66
2022/11/28 04:58:53;;;;;;;13.70;8.83;;;4.20;1.00;;;;;;5015537;28;20430;-66
2022/11/28 05:01:25;;;;;;;12.90;10.00;;;4.30;1.00;;;;;;5013611;28;20407;-66
2022/11/28 05:03:51;;;;;;;15.23;9.60;;;4.40;1.00;;;;;;5010709;28;20540;-66
2022/11/28 05:06:26;;;;;;;17.73;9.20;;;4.50;1.00;;;;;;5010350;28;20427;-66
2022/11/28 05:08:52;;;;;;;13.40;8.73;;;4.40;99.90;;;;;;5009342;28;20875;-65
2022/11/28 05:11:18;;;;;;;13.67;8.40;;;4.20;99.90;;;;;;5009580;28;20419;-65
2022/11/28 05:13:43;;;;;;;10.77;8.40;;;4.00;1.00;;;;;;5009705;28;20172;-67
2022/11/28 05:16:11;;;;;;;10.67;8.77;;;4.20;1.00;;;;;;5009952;28;20495;-64
2022/11/28 05:18:37;;;;;;;14.40;9.40;;;4.30;1.00;;;;;;5009814;28;20210;-65
2022/11/28 05:21:07;;;;;;;9.80;8.73;;;4.40;1.00;;;;;;5010153;28;20772;-65
2022/11/28 05:23:43;;;;;;;17.33;8.33;;;4.40;99.90;;;;;;5010015;28;20411;-65
2022/11/28 05:26:19;;;;;;;11.67;8.80;;;4.50;99.90;;;;;;5010078;28;20411;-65
2022/11/28 05:28:48;;;;;;;12.97;9.20;;;4.50;99.90;;;;;;5010489;28;20461;-65
2022/11/28 05:31:15;;;;;;;15.80;9.70;;;4.50;99.90;;;;;;5009738;28;20408;-65
2022/11/28 05:33:41;;;;;;;20.00;9.00;;;4.50;99.90;;;;;;5001844;28;20427;-65
2022/11/28 05:36:09;;;;;;;10.73;9.33;;;4.50;99.90;;;;;;5003624;28;20419;-66
2022/11/28 05:38:36;;;;;;;11.27;8.63;;;4.40;99.90;;;;;;5008969;28;20176;-65
2022/11/28 05:41:02;;;;;;;14.33;9.57;;;4.20;99.90;;;;;;5006854;28;20403;-65
2022/11/28 05:43:29;;;;;;;11.40;9.50;;;4.00;1.00;;;;;;5009630;28;20406;-66
2022/11/28 05:45:55;;;;;;;13.70;9.87;;;4.00;1.00;;;;;;5008246;28;20533;-65
2022/11/28 05:48:21;;;;;;;11.97;9.33;;;4.00;1.00;;;;;;5009190;28;20458;-65
2022/11/28 05:50:49;;;;;;;15.97;10.53;;;4.10;1.00;;;;;;5009237;28;20416;-65
2022/11/28 05:53:16;;;;;;;12.00;10.00;;;4.20;1.00;;;;;;4998184;28;20490;-65
2022/11/28 05:55:42;;;;;;;19.27;9.63;;;4.10;1.00;;;;;;4988570;28;20408;-65
2022/11/28 05:58:08;;;;;;;17.37;10.77;;;4.10;1.00;;;;;;4990214;28;20788;-64
2022/11/28 06:00:34;;;;;;;14.60;9.47;;;4.10;1.00;;;;;;4993583;28;20172;-65
2022/11/28 06:03:00;;;;;;;16.10;10.23;;;4.30;1.00;;;;;;5010896;28;20270;-65
2022/11/28 06:05:26;;;;;;;18.00;11.60;;;4.30;1.00;;;;;;5013163;28;20422;-65
2022/11/28 06:07:51;;;;;;;17.00;11.73;;;4.30;1.00;;;;;;5010586;28;20200;-65
2022/11/28 06:10:18;;;;;;;17.10;11.50;;;4.30;1.00;;;;;;5013014;28;20229;-66
2022/11/28 06:12:43;;;;;;;19.73;11.43;;;4.30;1.00;;;;;;5013130;28;20660;-66
2022/11/28 06:15:09;;;;;;;18.53;10.60;;;4.20;1.00;;;;;;5013312;28;20399;-66
2022/11/28 06:17:35;;;;;;;28.97;11.87;;;4.30;1.00;;;;;;5013344;28;20254;-65
2022/11/28 06:20:01;;;;;;;14.50;10.17;;;4.50;1.00;;;;;;5009667;28;20579;-65
2022/11/28 06:22:26;;;;;;;13.60;9.90;;;4.40;1.00;;;;;;5006037;28;20275;-65
2022/11/28 06:24:52;;;;;;;13.97;10.43;;;4.20;1.00;;;;;;5002102;28;20191;-65
2022/11/28 06:27:18;;;;;;;17.17;10.50;;;4.10;1.00;;;;;;5006410;28;20219;-64
2022/11/28 06:29:43;;;;;;;15.13;10.40;;;4.00;1.00;;;;;;5007233;28;20223;-64
2022/11/28 06:32:09;;;;;;;15.50;10.60;;;4.00;1.00;;;;;;5010033;28;20188;-64
2022/11/28 06:34:35;;;;;;;23.87;11.20;;;4.20;1.00;;;;;;5008984;28;20889;-64
2022/11/28 06:37:00;;;;;;;19.00;10.80;;;4.30;1.00;;;;;;5006393;28;20211;-65
2022/11/28 06:39:26;;;;;;;12.50;10.00;;;4.30;1.00;;;;;;5013502;28;20538;-65
2022/11/28 06:41:52;;;;;;;18.53;11.17;;;4.50;1.00;;;;;;5008356;28;20183;-64
2022/11/28 06:44:18;;;;;;;13.60;10.03;;;4.60;1.00;;;;;;5010209;28;20262;-65
2022/11/28 06:46:44;;;;;;;14.93;10.23;;;4.50;99.90;;;;;;5009286;28;20216;-64
2022/11/28 06:49:11;;;;;;;21.40;12.50;;;4.30;1.00;;;;;;5009609;28;20196;-66
2022/11/28 06:51:39;;;;;;;27.43;13.23;;;4.30;1.00;;;;;;5011080;28;20649;-66
2022/11/28 06:54:06;;;;;;;24.20;12.97;;;4.40;1.00;;;;;;5011380;28;20408;-65
2022/11/28 06:56:31;;;;;;;25.40;12.27;;;4.50;1.00;;;;;;5011855;28;20510;-65
2022/11/28 06:58:59;;;;;;;40.27;12.33;;;4.50;1.00;;;;;;5008442;28;20535;-68
2022/11/28 07:01:27;;;;;;;17.90;11.63;;;4.50;1.00;;;;;;5009285;28;20187;-65
2022/11/28 07:03:53;;;;;;;27.00;14.37;;;4.50;1.00;;;;;;5009126;28;20545;-66
2022/11/28 07:06:20;;;;;;;26.30;13.07;;;4.60;1.00;;;;;;5009440;28;20465;-66
2022/11/28 07:08:47;;;;;;;28.07;14.00;;;4.70;99.90;;;;;;5008900;28;20815;-64
2022/11/28 07:11:21;;;;;;;54.77;17.60;;;4.70;99.90;;;;;;5009177;28;20435;-65
2022/11/28 07:13:47;;;;;;;31.23;16.60;;;4.70;99.90;;;;;;4990693;28;20412;-65
2022/11/28 07:16:16;;;;;;;52.60;17.23;;;4.70;99.90;;;;;;4990859;28;20781;-65
2022/11/28 07:18:42;;;;;;;30.57;14.17;;;4.70;99.90;;;;;;4991176;28;20470;-66
2022/11/28 07:21:09;;;;;;;17.27;12.60;;;4.70;99.90;;;;;;4990797;28;20430;-66
2022/11/28 07:23:35;;;;;;;20.03;11.90;;;4.70;99.90;;;;;;5016392;28;20426;-66
2022/11/28 07:26:02;;;;;;;22.40;12.73;;;4.70;99.90;;;;;;5011525;28;20457;-65
2022/11/28 07:28:29;;;;;;;20.57;12.40;;;4.80;99.90;;;;;;5015391;28;20450;-66
2022/11/28 07:31:06;;;;;;;29.17;14.57;;;4.90;99.90;;;;;;5029634;28;20472;-66
2022/11/28 07:33:33;;;;;;;22.80;12.30;;;4.90;99.90;;;;;;5030579;28;20430;-65
2022/11/28 07:36:04;;;;;;;17.00;12.20;;;4.90;99.90;;;;;;5031246;28;20429;-65
2022/11/28 07:38:30;;;;;;;24.20;13.40;;;4.90;99.90;;;;;;5032430;28;20923;-66
2022/11/28 07:41:03;;;;;;;21.97;13.40;;;4.90;99.90;;;;;;5021487;28;20982;-65
2022/11/28 07:43:28;;;;;;;21.97;14.17;;;4.90;99.90;;;;;;5011055;28;20438;-66
2022/11/28 07:45:54;;;;;;;21.77;14.10;;;5.00;99.90;;;;;;5012533;28;20412;-66
2022/11/28 07:48:21;;;;;;;21.30;12.43;;;5.00;99.90;;;;;;5012526;28;20623;-66
2022/11/28 07:50:47;;;;;;;26.87;13.70;;;4.90;99.90;;;;;;5009716;28;20735;-67
2022/11/28 07:53:12;;;;;;;23.63;12.20;;;4.90;99.90;;;;;;5011077;28;20438;-66
2022/11/28 07:55:38;;;;;;;46.73;17.27;;;4.90;99.90;;;;;;5012773;28;20191;-66
2022/11/28 07:58:04;;;;;;;117.23;22.00;;;4.80;99.90;;;;;;5010770;28;20235;-66
2022/11/28 08:00:31;;;;;;;163.67;27.07;;;4.90;99.90;;;;;;5010417;28;20303;-66
2022/11/28 08:02:57;;;;;;;35.47;13.10;;;4.90;99.90;;;;;;5012254;28;20426;-67
2022/11/28 08:05:22;;;;;;;43.10;15.93;;;4.90;99.90;;;;;;5012583;28;20430;-65
2022/11/28 08:07:49;;;;;;;25.53;12.17;;;4.90;99.90;;;;;;5011341;28;20188;-66
2022/11/28 08:10:16;;;;;;;28.57;12.80;;;4.90;99.90;;;;;;5012611;28;20634;-65
2022/11/28 08:12:42;;;;;;;23.57;12.50;;;4.90;99.90;;;;;;5012574;28;20423;-66
2022/11/28 08:15:08;;;;;;;18.30;11.87;;;4.90;99.90;;;;;;5012407;28;20407;-64
2022/11/28 08:17:34;;;;;;;29.73;14.57;;;4.90;99.90;;;;;;5012507;28;20857;-66
2022/11/28 08:20:00;;;;;;;23.60;12.50;;;4.90;99.90;;;;;;5013299;28;20408;-67
2022/11/28 08:22:26;;;;;;;19.67;11.93;;;4.90;99.90;;;;;;5012146;28;20247;-66
2022/11/28 08:24:51;;;;;;;17.23;12.80;;;5.00;99.90;;;;;;5011480;28;20181;-66
2022/11/28 08:27:17;;;;;;;19.90;12.80;;;4.90;99.90;;;;;;5012373;28;20534;-67
2022/11/28 08:29:43;;;;;;;18.27;12.37;;;4.90;99.90;;;;;;5011216;28;20200;-65
2022/11/28 08:32:08;;;;;;;20.03;13.53;;;5.00;99.90;;;;;;5009948;28;20171;-66
2022/11/28 08:34:34;;;;;;;16.70;13.30;;;5.10;99.90;;;;;;5010309;28;20184;-66
2022/11/28 08:37:00;;;;;;;18.80;11.67;;;5.20;99.90;;;;;;5010807;28;20661;-65
2022/11/28 08:39:26;;;;;;;19.50;13.40;;;5.20;99.90;;;;;;5010292;28;20246;-64
2022/11/28 08:41:55;;;;;;;17.00;12.80;;;5.10;99.90;;;;;;5009940;28;20172;-66
2022/11/28 08:44:22;;;;;;;16.70;12.97;;;4.80;1.00;;;;;;5010193;28;20176;-65
2022/11/28 08:46:47;;;;;;;33.00;14.00;;;5.00;1.00;;;;;;5010717;28;20608;-66
2022/11/28 08:49:13;;;;;;;33.07;13.93;;;4.90;99.90;;;;;;5010301;28;20463;-66
2022/11/28 08:51:39;;;;;;;18.90;13.50;;;5.00;99.90;;;;;;5009559;28;20164;-66
2022/11/28 08:54:04;;;;;;;21.20;14.40;;;5.00;99.90;;;;;;5009732;28;20235;-66
2022/11/28 08:56:30;;;;;;;19.43;13.97;;;5.10;99.90;;;;;;5010029;28;20744;-65
2022/11/28 08:58:56;;;;;;;39.90;17.10;;;5.20;99.90;;;;;;5009675;28;20176;-65
2022/11/28 09:01:24;;;;;;;57.60;18.50;;;5.20;99.90;;;;;;5009243;28;20168;-66
2022/11/28 09:03:51;;;;;;;38.87;17.73;;;5.30;99.90;;;;;;5009994;28;20180;-66
2022/11/28 09:06:17;;;;;;;95.67;26.00;;;5.20;99.90;;;;;;5010165;28;20497;-66
2022/11/28 09:08:43;;;;;;;65.07;20.30;;;5.30;99.90;;;;;;5009745;28;20558;-65
2022/11/28 09:11:12;;;;;;;47.03;21.00;;;5.30;99.90;;;;;;5009477;28;20487;-66
2022/11/28 09:13:38;;;;;;;31.83;18.43;;;5.40;99.90;;;;;;5010043;28;20769;-65
2022/11/28 09:16:04;;;;;;;48.83;19.00;;;5.40;62.30;;;;;;5010091;28;20408;-66
2022/11/28 09:18:30;;;;;;;40.37;18.17;;;5.40;39.80;;;;;;5009849;28;20415;-65
2022/11/28 09:20:57;;;;;;;18.73;15.20;;;5.40;1.00;;;;;;5009188;28;20425;-66
2022/11/28 09:23:23;;;;;;;21.33;15.37;;;5.40;1.00;;;;;;5009658;28;20203;-65
2022/11/28 09:25:49;;;;;;;18.80;13.67;;;5.40;1.00;;;;;;5010275;28;20450;-66
2022/11/28 09:28:14;;;;;;;21.57;13.40;;;5.40;1.00;;;;;;5009608;28;20215;-66
2022/11/28 09:30:40;;;;;;;34.83;14.90;;;5.40;1.00;;;;;;5009283;28;20199;-66
2022/11/28 09:33:06;;;;;;;22.43;16.00;;;5.30;99.90;;;;;;5009889;28;20175;-66
2022/11/28 09:35:32;;;;;;;30.00;15.40;;;5.40;76.50;;;;;;5010016;28;20168;-66
2022/11/28 09:37:58;;;;;;;39.27;16.00;;;5.40;3.90;;;;;;5009232;28;20538;-66
2022/11/28 09:40:39;;;;;;;28.90;16.27;;;5.50;29.10;;;;;;5009379;28;20399;-65
2022/11/28 09:43:26;;;;;;;28.90;16.30;;;5.60;1.00;;;;;;5009461;28;20179;-66
2022/11/28 09:45:53;;;;;;;20.20;15.27;;;5.60;1.00;;;;;;5009800;28;20563;-65
2022/11/28 09:48:25;;;;;;;42.63;18.23;;;5.60;1.00;;;;;;5009646;28;20469;-65
2022/11/28 09:50:58;;;;;;;24.13;16.17;;;5.70;1.00;;;;;;5008615;28;20404;-66
2022/11/28 09:53:40;;;;;;;22.63;16.20;;;5.60;1.00;;;;;;5008917;28;20407;-65
2022/11/28 09:56:14;;;;;;;26.30;16.47;;;5.60;1.00;;;;;;5009725;28;20411;-65
2022/11/28 09:59:18;;;;;;;26.20;18.50;;;5.60;1.00;;;;;;5009576;28;20400;-65
2022/11/28 10:02:08;;;;;;;54.53;20.07;;;5.70;1.00;;;;;;5005087;28;20418;-66
2022/11/28 10:04:46;;;;;;;27.37;18.70;;;5.70;1.00;;;;;;5009467;28;20438;-66
2022/11/28 10:07:24;;;;;;;27.20;18.70;;;5.70;1.00;;;;;;5009356;28;20437;-66
2022/11/28 10:10:04;;;;;;;31.20;18.33;;;5.70;1.00;;;;;;5009058;28;20454;-66
2022/11/28 10:12:39;;;;;;;28.37;20.17;;;5.80;1.00;;;;;;5008773;28;20426;-66
2022/11/28 10:15:14;;;;;;;30.23;20.43;;;5.70;99.90;;;;;;5009854;28;20420;-66
2022/11/28 10:17:39;;;;;;;56.00;23.07;;;5.70;1.00;;;;;;5009403;28;20900;-66
2022/11/28 10:20:11;;;;;;;36.33;20.17;;;5.70;1.00;;;;;;5009436;28;20445;-66
2022/11/28 10:22:59;;;;;;;38.80;20.70;;;5.80;1.00;;;;;;5008833;28;20180;-66
2022/11/28 10:25:27;;;;;;;34.93;21.10;;;5.90;99.90;;;;;;5009719;28;20419;-66
2022/11/28 10:27:54;;;;;;;38.10;18.83;;;5.90;99.90;;;;;;5008770;28;20439;-66
2022/11/28 10:30:23;;;;;;;46.03;18.90;;;5.80;99.90;;;;;;5009345;28;20458;-66
2022/11/28 10:33:02;;;;;;;27.27;18.03;;;5.80;99.90;;;;;;5009282;28;20406;-66
2022/11/28 10:36:03;;;;;;;28.77;18.43;;;5.90;99.90;;;;;;5009590;28;20955;-67
2022/11/28 10:38:33;;;;;;;34.93;19.70;;;6.00;99.90;;;;;;4989769;28;20417;-66
2022/11/28 10:41:24;;;;;;;30.13;19.43;;;6.00;99.90;;;;;;5007961;28;20411;-66
2022/11/28 10:44:10;;;;;;;35.17;21.00;;;6.00;99.90;;;;;;5009650;28;20407;-65
2022/11/28 10:46:36;;;;;;;27.73;18.53;;;6.10;99.90;;;;;;5008898;28;20446;-65
2022/11/28 10:49:04;;;;;;;32.77;21.30;;;6.10;10.10;;;;;;5011463;28;20831;-65
2022/11/28 10:51:33;;;;;;;28.07;20.00;;;6.10;1.00;;;;;;5012008;28;20580;-65
2022/11/28 10:54:24;;;;;;;24.47;18.13;;;6.10;12.50;;;;;;5012094;28;20410;-65
2022/11/28 10:57:01;;;;;;;27.03;19.07;;;6.10;1.00;;;;;;5012753;28;20823;-65
2022/11/28 10:59:48;;;;;;;23.20;17.83;;;6.20;1.00;;;;;;5012439;28;20489;-65
2022/11/28 11:02:38;;;;;;;37.83;16.73;;;6.20;1.00;;;;;;5011429;28;20415;-66
2022/11/28 11:05:06;;;;;;;36.60;16.87;;;6.10;1.00;;;;;;5012647;28;20549;-65
2022/11/28 11:07:32;;;;;;;72.07;22.10;;;6.20;1.00;;;;;;5012237;28;20522;-66
2022/11/28 11:10:18;;;;;;;110.33;25.23;;;6.20;1.00;;;;;;5011613;28;20464;-64
2022/11/28 11:12:44;;;;;;;94.37;23.67;;;6.20;1.00;;;;;;5011685;28;20923;-67
2022/11/28 11:15:34;;;;;;;44.67;18.87;;;6.20;1.00;;;;;;5012134;28;20498;-66
2022/11/28 11:18:04;;;;;;;84.97;23.80;;;6.20;1.00;;;;;;5008923;28;20522;-66
2022/11/28 11:20:37;;;;;;;74.27;22.60;;;6.20;1.00;;;;;;5011045;28;20569;-67
2022/11/28 11:23:19;;;;;;;36.93;18.83;;;6.20;1.00;;;;;;5012090;28;20908;-66
2022/11/28 11:25:54;;;;;;;73.80;21.10;;;6.30;1.00;;;;;;5012701;28;20404;-67
2022/11/28 11:28:28;;;;;;;52.83;20.23;;;6.30;1.00;;;;;;5012447;28;20465;-66
2022/11/28 11:31:03;;;;;;;52.17;19.83;;;6.30;99.90;;;;;;5011870;28;20399;-66
2022/11/28 11:33:36;;;;;;;33.77;20.03;;;6.30;99.90;;;;;;5011967;28;20413;-66
2022/11/28 11:36:04;;;;;;;47.63;20.23;;;6.30;99.90;;;;;;5012288;28;20411;-66
2022/11/28 11:38:34;;;;;;;51.90;20.83;;;6.40;99.90;;;;;;5011573;28;20408;-66
2022/11/28 11:41:20;;;;;;;30.03;20.60;;;6.30;99.90;;;;;;5011901;28;20775;-67
2022/11/28 11:43:46;;;;;;;31.97;20.17;;;6.40;99.90;;;;;;5011166;28;20440;-65
2022/11/28 11:46:13;;;;;;;30.23;20.10;;;6.40;99.90;;;;;;5011475;28;20469;-65
2022/11/28 11:48:42;;;;;;;28.40;18.70;;;6.40;99.90;;;;;;5011076;28;20208;-66
2022/11/28 11:51:29;;;;;;;30.80;19.70;;;6.40;99.90;;;;;;5010804;28;20404;-65
2022/11/28 11:54:12;;;;;;;30.63;20.10;;;6.60;99.90;;;;;;5010999;28;20450;-66
2022/11/28 11:56:45;;;;;;;28.63;21.70;;;6.60;99.90;;;;;;5011976;28;20438;-66
2022/11/28 11:59:28;;;;;;;37.40;22.07;;;6.70;99.90;;;;;;5011817;28;20435;-67
2022/11/28 12:01:59;;;;;;;34.03;22.10;;;6.80;1.00;;;;;;5010465;28;20458;-67
2022/11/28 12:04:42;;;;;;;38.70;20.17;;;6.80;1.00;;;;;;5012665;28;20483;-67
2022/11/28 12:07:22;;;;;;;32.70;19.50;;;6.80;1.00;;;;;;5016993;28;20423;-66
2022/11/28 12:09:51;;;;;;;32.43;19.80;;;6.90;99.90;;;;;;5014507;28;20513;-65
2022/11/28 12:12:22;;;;;;;43.50;21.00;;;6.80;99.90;;;;;;5014189;28;20956;-66
2022/11/28 12:14:49;;;;;;;53.60;23.57;;;6.80;99.90;;;;;;5014429;28;20485;-65
2022/11/28 12:17:29;;;;;;;140.90;35.80;;;6.90;99.90;;;;;;5014885;28;20494;-65
2022/11/28 12:20:11;;;;;;;38.23;19.33;;;7.00;99.90;;;;;;5014303;28;20501;-66
2022/11/28 12:23:13;;;;;;;49.27;20.63;;;7.00;32.70;;;;;;5013861;28;20914;-65
2022/11/28 12:25:44;;;;;;;57.60;21.57;;;7.00;1.00;;;;;;5014806;28;20446;-66
2022/11/28 12:28:28;;;;;;;46.47;20.17;;;7.10;1.00;;;;;;5012566;28;20447;-66
2022/11/28 12:31:05;;;;;;;29.97;18.33;;;7.10;1.00;;;;;;5010248;28;20399;-66
2022/11/28 12:34:09;;;;;;;32.33;18.30;;;7.10;1.00;;;;;;5010917;28;20934;-66
2022/11/28 12:36:51;;;;;;;29.43;20.40;;;7.20;1.00;;;;;;5011052;28;20431;-65
2022/11/28 12:39:22;;;;;;;25.13;17.90;;;7.20;1.00;;;;;;5010423;28;20395;-65
2022/11/28 12:42:15;;;;;;;30.20;20.80;;;7.10;99.90;;;;;;5010515;28;20990;-66
2022/11/28 12:44:40;;;;;;;35.13;18.80;;;7.10;99.90;;;;;;5010983;28;20404;-66
2022/11/28 12:47:12;;;;;;;35.87;20.20;;;7.30;20.00;;;;;;5010920;28;21061;-66
2022/11/28 12:50:12;;;;;;;31.80;18.27;;;7.30;1.00;;;;;;5010112;28;20278;-67
2022/11/28 12:52:49;;;;;;;26.97;20.40;;;7.30;1.00;;;;;;5010041;28;20403;-65
2022/11/28 12:55:29;;;;;;;52.87;19.43;;;7.30;1.00;;;;;;5009452;28;20431;-66
2022/11/28 12:58:03;;;;;;;40.07;19.43;;;7.40;1.00;;;;;;5009518;28;20462;-66
2022/11/28 13:00:29;;;;;;;33.57;12.50;;;7.40;1.00;;;;;;5007830;28;20492;-65
2022/11/28 13:03:10;;;;;;;36.37;14.97;;;7.90;1.00;;;;;;5009945;28;20408;-67
2022/11/28 13:06:02;;;;;;;71.10;22.10;;;9.70;1.00;;;;;;5010120;28;20261;-66
2022/11/28 13:08:36;;;;;;;37.37;19.77;;;8.60;1.00;;;;;;5008460;28;20450;-66
2022/11/28 13:11:18;;;;;;;30.80;19.17;;;8.10;1.00;;;;;;5008199;28;20438;-67